Live aus Altenrhein
LIVE
LSZR 231850Z VRB02KT CAVOK 23/17 Q1017 NOSIG RMK O

People´s Info Center:

Öffnungszeiten Mo-Fr, 8-18 Uhr

 

info@peoples.ch

 
Aus Österreich:

T: +43 (0)5572 203 610

 

Aus CH / LI / DE:

T: +41 (0)71 858 51 60

 

Ich möchte etwas zum Klimaschutz beitragen. Was kann ich tun?

 

Die People’s Viennaline hat sich ab dem Winterflugplan 2016/17 dem Klimaneutralitätsbündnis 2025 angeschlossen, um alle Flüge als Unternehmensfussabdruck klimaneutral zu stellen. Fluggäste haben die Wahl auf dem Linien- oder Charterflug „ihren Fussabdruck“ für die Umwelt mitzutragen. Der Fluggast wählt beim Buchungsvorgang freiwillig die Zusatzleistung "Klimaneutrales Fliegen" und bezahlt je nach geflogenen Kilometern seinen Klimaschutz-Anteil pro Strecke.
 

Weitere Informationen zum klimaneutralen Fliegen